Airfield :
LOGIN :

Register | Disclaimer

   EN    FR    IT 

 










Legend :    VFR   Marginal VFR   IFR   Intensive IFR   Very Intensive IFR
Visi :
Ceiling :
>= 8 km
>= 3000ft
5 to 8 km
1000 to 3000 ft
1500m to 5 km
500 to 1000 ft
800 to 1500m
200 to 500 ft
< 800m
< 200 ft
Symbols :   Thunderstorms  Fog  Heavy snow  Heavy precipitations  Wind > 20 kt
SIGMETs :     Misc.  Thunderstorms  Icing  Turbulence  Mountain Waves  Volcanic Ashes







- Airport Elevation : 751 ft
- IATA code : ENC
- Download approach charts


LFSN - Nancy Essey

CURRENT METAR :
  • 180630Z AUTO 18005KT 150V210 9999 OVC011 02/01 Q1019

EXPIRED METARs :
  • 180600Z AUTO 17006KT 130V200 7000 -SNRA OVC009 01/00 Q1019
  • 180530Z AUTO 20007KT 170V240 7000 -SNRA OVC008 01/00 Q1019
  • 180500Z AUTO 18006KT 120V220 7000 -RA OVC007 01/00 Q1019
  • 180430Z AUTO 11004KT 030V200 8000 -RA OVC007 01/00 Q1019
  • 180400Z AUTO 17008KT 5000 -RA BR OVC007 01/00 Q1020

Expired Forecast.
No reported NOTAMs for that airfield.
1 SIGMET reported for the Reims FIR (LFEE) :
 
Severe icing
LFEE SIGMET 1 VALID 180340/180700 LFPW
LFEE REIMS FIR/UIR SEV ICE FCST SE OF LINE N4930 E00630 - N4645 E00445 FL020/110 MOV E 10KT NC=



MET'MAP, your aeronautical weather chart ! - Copyright ORBIFLY December 2007 - Disclaimer

ORBIFLY MET'MAP TEAM :

Programming & Development : Alexandra Zaïnal
Concept & Development : Baudouin d'Aumeries
Co-Development & Prog : Marc-Olivier Méhu
Technical & hardware support : Manuel Goepfert

Contact : metmap@orbifly.com




SOURCES & CREDITS :

   NOAA